createdAt,value
2023-08-18T00:02:43.140Z,96015.28
2023-08-18T00:07:45.496Z,96001.50
2023-08-18T00:12:47.787Z,96002.44
2023-08-18T00:17:49.498Z,96004.16
2023-08-18T00:22:51.049Z,95996.75
2023-08-18T00:27:56.300Z,95992.88
2023-08-18T00:32:58.089Z,95996.31
2023-08-18T00:38:00.166Z,95994.16
2023-08-18T00:43:02.416Z,95997.91
2023-08-18T00:48:04.967Z,95992.78
2023-08-18T00:53:07.839Z,95990.94
2023-08-18T00:58:10.107Z,95977.44
2023-08-18T01:03:12.983Z,95977.63
2023-08-18T01:08:15.284Z,95979.81
2023-08-18T01:13:37.146Z,95982.50
2023-08-18T01:18:40.144Z,95987.19
2023-08-18T01:23:43.344Z,95976.97
2023-08-18T01:28:45.828Z,95966.16
2023-08-18T01:33:54.600Z,95965.25
2023-08-18T01:38:58.994Z,95964.34
2023-08-18T01:44:02.179Z,95971.31
2023-08-18T01:49:04.567Z,95965.94
2023-08-18T01:54:07.289Z,95974.94
2023-08-18T01:59:09.718Z,95970.28
2023-08-18T02:04:11.374Z,95960.81
2023-08-18T02:09:15.407Z,95961.00
2023-08-18T02:14:19.517Z,95962.38
2023-08-18T02:19:21.828Z,95959.78
2023-08-18T02:24:24.261Z,95952.34
2023-08-18T02:29:27.097Z,95962.41
2023-08-18T02:34:28.859Z,95962.59
2023-08-18T02:39:31.591Z,95971.88
2023-08-18T02:44:33.870Z,95969.25
2023-08-18T02:49:36.568Z,95978.84
2023-08-18T02:54:38.102Z,95974.97
2023-08-18T02:59:40.469Z,95975.94
2023-08-18T03:04:42.308Z,95979.16
2023-08-18T03:09:44.222Z,95978.09
2023-08-18T03:14:47.234Z,95979.19
2023-08-18T03:19:49.685Z,95984.13
2023-08-18T03:24:52.950Z,95987.09
2023-08-18T03:29:56.688Z,95986.47
2023-08-18T03:34:59.918Z,95993.44
2023-08-18T03:40:04.347Z,95980.91
2023-08-18T03:45:07.870Z,95976.25
2023-08-18T03:50:11.253Z,95990.63
2023-08-18T03:55:15.026Z,95978.38
2023-08-18T04:00:19.220Z,95982.88
2023-08-18T04:05:22.890Z,95982.09
2023-08-18T04:10:24.904Z,95990.63
2023-08-18T04:15:27.075Z,95987.53
2023-08-18T04:20:30.703Z,95981.19
2023-08-18T04:25:32.487Z,95972.53
2023-08-18T04:30:34.748Z,95972.06
2023-08-18T04:35:36.737Z,95975.31
2023-08-18T04:40:38.757Z,95979.63
2023-08-18T04:45:41.122Z,95982.41
2023-08-18T04:50:46.143Z,95986.28
2023-08-18T04:55:47.980Z,95983.81
2023-08-18T05:00:49.635Z,95986.91
2023-08-18T05:06:09.617Z,95977.63
2023-08-18T05:11:12.484Z,95993.41
2023-08-18T05:16:14.424Z,95991.72
2023-08-18T05:21:16.013Z,95982.47
2023-08-18T05:26:17.836Z,95985.06
2023-08-18T05:31:19.607Z,95987.72
2023-08-18T05:36:23.211Z,95991.59
2023-08-18T05:41:25.598Z,95987.09
2023-08-18T05:46:27.398Z,95977.81
2023-08-18T05:51:29.007Z,95989.25
2023-08-18T05:56:30.751Z,95989.84
2023-08-18T06:01:32.343Z,95990.94
2023-08-18T06:06:35.394Z,95992.78
2023-08-18T06:11:36.959Z,95996.66
2023-08-18T06:16:38.553Z,96005.94
2023-08-18T06:21:40.140Z,96003.28
2023-08-18T06:26:41.689Z,96005.00
2023-08-18T06:31:43.372Z,96001.88
2023-08-18T06:36:44.941Z,96001.53
2023-08-18T06:41:46.546Z,96000.78
2023-08-18T06:46:49.273Z,96004.31
2023-08-18T06:51:50.847Z,96004.75
2023-08-18T06:56:53.042Z,96008.75
2023-08-18T07:01:54.702Z,96017.38
2023-08-18T07:06:56.325Z,96013.78
2023-08-18T07:11:57.881Z,96022.88
2023-08-18T07:17:00.465Z,96014.44
2023-08-18T07:22:02.080Z,96018.75
2023-08-18T07:27:04.414Z,96017.47
2023-08-18T07:32:06.144Z,96018.16
2023-08-18T07:37:07.751Z,96021.97
2023-08-18T07:42:09.750Z,96017.88
2023-08-18T07:47:12.098Z,96021.38
2023-08-18T07:52:15.547Z,96018.81
2023-08-18T07:57:17.697Z,96025.88
2023-08-18T08:02:28.991Z,96015.88
2023-08-18T08:07:33.736Z,96029.47
2023-08-18T08:12:36.377Z,96028.13
2023-08-18T08:17:38.091Z,96018.41
2023-08-18T08:22:43.239Z,96028.06
2023-08-18T08:27:45.873Z,96027.38
2023-08-18T08:32:47.474Z,96030.88
2023-08-18T08:37:49.140Z,96024.22
2023-08-18T08:42:54.857Z,96029.22
2023-08-18T08:47:58.260Z,96036.03
2023-08-18T08:53:01.898Z,96030.63
2023-08-18T08:58:04.074Z,96027.03
2023-08-18T09:03:07.960Z,96042.44
2023-08-18T09:08:09.690Z,96030.34
2023-08-18T09:13:12.051Z,96030.50
2023-08-18T09:18:14.371Z,96028.34
2023-08-18T09:23:21.013Z,96022.09
2023-08-18T09:28:28.024Z,96026.59
2023-08-18T09:33:34.038Z,96026.75
2023-08-18T09:38:41.092Z,96018.44
2023-08-18T09:43:42.784Z,96019.84
2023-08-18T09:48:47.331Z,96011.81
2023-08-18T09:54:00.434Z,96022.44
2023-08-18T09:59:20.716Z,96011.59
2023-08-18T10:04:25.636Z,96009.44
2023-08-18T10:09:29.167Z,96006.72
2023-08-18T10:14:32.369Z,96000.41
2023-08-18T10:19:48.352Z,96007.94
2023-08-18T10:24:50.555Z,96008.28
2023-08-18T10:29:55.226Z,96012.94
2023-08-18T10:36:01.971Z,96004.56
2023-08-18T10:41:07.244Z,96004.91
2023-08-18T10:46:14.371Z,96002.66
2023-08-18T10:51:15.924Z,96001.44
2023-08-18T10:56:17.585Z,95997.88
2023-08-18T11:01:21.935Z,95999.97
2023-08-18T11:06:27.904Z,95994.88
2023-08-18T11:11:29.810Z,95999.00
2023-08-18T11:16:31.399Z,95995.44
2023-08-18T11:21:36.176Z,95982.41
2023-08-18T11:26:39.466Z,95979.34
2023-08-18T11:31:41.500Z,95980.09
2023-08-18T11:36:43.133Z,95977.53
2023-08-18T11:41:45.877Z,95970.38
2023-08-18T11:46:47.497Z,95969.34
2023-08-18T11:51:57.302Z,95973.94
2023-08-18T11:56:59.983Z,95978.31
2023-08-18T12:02:05.563Z,95975.50
2023-08-18T12:07:07.093Z,95958.28
2023-08-18T12:12:15.660Z,95962.13
2023-08-18T12:17:17.933Z,95965.41
2023-08-18T12:22:19.551Z,95952.31
2023-08-18T12:27:25.138Z,95944.59
2023-08-18T12:32:26.941Z,95944.28
2023-08-18T12:37:30.039Z,95946.09
2023-08-18T12:42:32.193Z,95950.69
2023-08-18T12:47:34.681Z,95943.00
2023-08-18T12:52:36.798Z,95946.53
2023-08-18T12:57:38.430Z,95945.72
2023-08-18T13:02:40.117Z,95939.84
2023-08-18T13:07:41.890Z,95944.72
2023-08-18T13:12:43.680Z,95948.56
2023-08-18T13:17:46.072Z,95937.28
2023-08-18T13:22:48.233Z,95935.66
2023-08-18T13:27:49.902Z,95937.69
2023-08-18T13:32:51.697Z,95937.38
2023-08-18T13:37:53.444Z,95942.38
2023-08-18T13:42:55.118Z,95926.44
2023-08-18T13:47:56.721Z,95924.16
2023-08-18T13:52:59.389Z,95924.03
2023-08-18T13:58:01.073Z,95923.88
2023-08-18T14:03:03.009Z,95931.72
2023-08-18T14:08:05.438Z,95929.28
2023-08-18T14:13:07.254Z,95919.88
2023-08-18T14:18:09.377Z,95912.72
2023-08-18T14:23:11.270Z,95915.59
2023-08-18T14:28:13.010Z,95905.81
2023-08-18T14:33:14.796Z,95911.25
2023-08-18T14:38:16.842Z,95906.91
2023-08-18T14:43:19.326Z,95906.09
2023-08-18T14:48:20.954Z,95905.38
2023-08-18T14:53:23.717Z,95895.78
2023-08-18T14:58:29.000Z,95894.34
2023-08-18T15:03:31.117Z,95886.66
2023-08-18T15:08:32.803Z,95881.00
2023-08-18T15:13:34.562Z,95880.47
2023-08-18T15:18:36.460Z,95876.13
2023-08-18T15:23:38.254Z,95867.16
2023-08-18T15:28:39.870Z,95875.13
2023-08-18T15:33:44.893Z,95872.19
2023-08-18T15:38:46.473Z,95874.25
2023-08-18T15:43:48.067Z,95869.22
2023-08-18T15:48:49.633Z,95869.50
2023-08-18T15:53:51.250Z,95877.06
2023-08-18T15:58:52.806Z,95877.38
2023-08-18T16:03:54.338Z,95880.28
2023-08-18T16:08:55.848Z,95881.66
2023-08-18T16:14:11.685Z,95881.00
2023-08-18T16:19:19.272Z,95891.13
2023-08-18T16:24:20.847Z,95881.72
2023-08-18T16:29:22.432Z,95890.13
2023-08-18T16:34:26.566Z,95884.84
2023-08-18T16:39:29.983Z,95880.13
2023-08-18T16:44:31.586Z,95876.22
2023-08-18T16:49:33.185Z,95873.03
2023-08-18T16:54:35.703Z,95867.56
2023-08-18T16:59:37.359Z,95865.47
2023-08-18T17:04:39.529Z,95865.25
2023-08-18T17:09:41.462Z,95860.16
2023-08-18T17:14:43.712Z,95859.19
2023-08-18T17:19:48.543Z,95860.84
2023-08-18T17:24:50.335Z,95860.41
2023-08-18T17:29:51.865Z,95868.84
2023-08-18T17:34:56.874Z,95867.44
2023-08-18T17:39:59.612Z,95869.03
2023-08-18T17:45:01.489Z,95873.56
2023-08-18T17:50:03.275Z,95875.53
2023-08-18T17:55:05.616Z,95882.22
2023-08-18T18:00:08.062Z,95892.44
2023-08-18T18:05:11.988Z,95892.84
2023-08-18T18:10:13.938Z,95889.88
2023-08-18T18:15:16.067Z,95899.72
2023-08-18T18:20:18.109Z,95900.31
2023-08-18T18:25:19.898Z,95905.75
2023-08-18T18:30:21.777Z,95909.31
2023-08-18T18:35:24.657Z,95915.50
2023-08-18T18:40:26.336Z,95925.25
2023-08-18T18:45:27.886Z,95933.75
2023-08-18T18:50:30.017Z,95926.25
2023-08-18T18:55:32.288Z,95928.81
2023-08-18T19:00:34.825Z,95934.91
2023-08-18T19:05:40.618Z,95934.03
2023-08-18T19:10:42.173Z,95933.91
2023-08-18T19:15:44.206Z,95930.38
2023-08-18T19:20:45.985Z,95931.25
2023-08-18T19:25:47.563Z,95929.25
2023-08-18T19:30:49.176Z,95929.84
2023-08-18T19:35:52.108Z,95927.31
2023-08-18T19:40:54.684Z,95928.13
2023-08-18T19:45:57.757Z,95940.19
2023-08-18T19:50:59.448Z,95927.16
2023-08-18T19:56:01.080Z,95926.91
2023-08-18T20:01:04.468Z,95931.50
2023-08-18T20:06:06.337Z,95951.97
2023-08-18T20:11:08.157Z,95944.78
2023-08-18T20:16:09.780Z,95950.91
2023-08-18T20:21:11.694Z,95947.31
2023-08-18T20:26:13.622Z,95948.03
2023-08-18T20:31:15.240Z,95948.03
2023-08-18T20:36:16.926Z,95951.59
2023-08-18T20:41:18.632Z,95956.69
2023-08-18T20:46:23.210Z,95959.22
2023-08-18T20:51:24.835Z,95963.53
2023-08-18T20:56:26.444Z,95970.13
2023-08-18T21:01:28.082Z,95967.31
2023-08-18T21:06:29.641Z,95967.78
2023-08-18T21:11:31.312Z,95965.19
2023-08-18T21:16:32.978Z,95969.25
2023-08-18T21:21:34.573Z,95966.66
2023-08-18T21:26:36.136Z,95971.97
2023-08-18T21:31:37.703Z,95957.13
2023-08-18T21:36:39.305Z,95948.34
2023-08-18T21:41:40.957Z,95959.81
2023-08-18T21:46:42.550Z,95959.25
2023-08-18T21:51:44.573Z,95951.84
2023-08-18T21:56:46.836Z,95950.81
2023-08-18T22:01:48.435Z,95956.16
2023-08-18T22:06:49.984Z,95951.28
2023-08-18T22:11:52.984Z,95960.16
2023-08-18T22:16:54.852Z,95954.50
2023-08-18T22:21:56.497Z,95950.88
2023-08-18T22:26:58.059Z,95952.38
2023-08-18T22:31:59.785Z,95951.06
2023-08-18T22:37:01.524Z,95958.16
2023-08-18T22:42:03.489Z,95961.16
2023-08-18T22:47:10.341Z,95965.47
2023-08-18T22:52:13.038Z,95963.88
2023-08-18T22:57:14.988Z,95967.13
2023-08-18T23:02:16.583Z,95963.50
2023-08-18T23:07:18.720Z,95965.19
2023-08-18T23:12:20.356Z,95964.38
2023-08-18T23:17:21.946Z,95964.81
2023-08-18T23:22:23.952Z,95956.34
2023-08-18T23:27:25.492Z,95956.03
2023-08-18T23:32:27.049Z,95954.38
2023-08-18T23:37:28.657Z,95948.72
2023-08-18T23:42:30.284Z,95947.41
2023-08-18T23:47:32.218Z,95958.53
2023-08-18T23:52:34.020Z,95952.09
2023-08-18T23:57:35.565Z,95953.56
